Time;durP1;ratioP1;P1;durP2;ratioP2;P2;SDS_P1;SDS_P2;PMS_P1;PMS_P2;Temp;Humidity;BMP_temperature;BMP_pressure;BME280_temperature;BME280_humidity;BME280_pressure;Samples;Min_cycle;Max_cycle;Signal;HPM_P1;HPM_P2
2022/08/09 00:03:29;;;;;;;0.10;0.10;;;;;;;12.34;100.00;102791.94;10451593;28;20021;-73
2022/08/09 00:08:29;;;;;;;0.10;0.10;;;;;;;12.18;100.00;102793.13;10451160;28;20025;-72
2022/08/09 00:13:30;;;;;;;0.10;0.10;;;;;;;12.13;100.00;102791.78;10451379;28;20263;-72
2022/08/09 00:18:31;;;;;;;0.10;0.10;;;;;;;12.01;100.00;102796.28;10451224;28;20055;-72
2022/08/09 00:23:33;;;;;;;0.10;0.10;;;;;;;11.87;100.00;102801.84;10450738;28;20055;-71
2022/08/09 00:28:33;;;;;;;0.10;0.10;;;;;;;11.76;100.00;102800.00;10449920;28;20104;-72
2022/08/09 00:33:38;;;;;;;0.10;0.10;;;;;;;11.68;100.00;102805.06;10450453;28;20111;-72
2022/08/09 00:38:38;;;;;;;0.10;0.10;;;;;;;11.64;100.00;102801.78;10450484;28;20044;-72
2022/08/09 00:43:39;;;;;;;0.00;0.00;;;;;;;11.61;100.00;102798.53;10450525;28;20017;-72
2022/08/09 00:48:40;;;;;;;0.08;0.08;;;;;;;11.59;100.00;102800.44;10449914;28;20055;-72
2022/08/09 00:53:40;;;;;;;0.08;0.08;;;;;;;11.59;100.00;102797.78;10449899;28;20067;-72
2022/08/09 00:58:41;;;;;;;0.10;0.10;;;;;;;11.52;100.00;102792.06;10451151;28;20495;-72
2022/08/09 01:03:56;;;;;;;0.10;0.10;;;;;;;11.47;100.00;102804.91;10449511;28;20051;-71
2022/08/09 01:10:01;;;;;;;0.10;0.10;;;;;;;11.41;100.00;102800.03;10449930;28;20021;-72
2022/08/09 01:15:05;;;;;;;0.00;0.00;;;;;;;11.41;100.00;102800.03;10336975;28;20033;-72
2022/08/09 01:20:18;;;;;;;0.10;0.10;;;;;;;11.37;100.00;102799.41;10430893;28;20037;-73
2022/08/09 01:25:46;;;;;;;0.10;0.10;;;;;;;11.31;100.00;102789.19;10449024;28;20092;-72
2022/08/09 01:30:48;;;;;;;0.00;0.00;;;;;;;11.25;100.00;102787.00;10452214;28;20071;-72
2022/08/09 01:35:54;;;;;;;0.10;0.10;;;;;;;11.18;100.00;102781.28;10449421;28;20108;-72
2022/08/09 01:41:10;;;;;;;0.10;0.10;;;;;;;11.05;100.00;102781.34;10458476;28;20411;-72
2022/08/09 01:46:12;;;;;;;0.10;0.10;;;;;;;10.99;100.00;102786.28;10456938;28;20017;-72
2022/08/09 01:51:14;;;;;;;0.10;0.10;;;;;;;10.93;100.00;102784.91;10456850;28;20021;-72
2022/08/09 01:56:16;;;;;;;0.10;0.10;;;;;;;10.84;100.00;102790.94;10456591;28;20074;-72
2022/08/09 02:01:18;;;;;;;0.10;0.10;;;;;;;10.79;100.00;102788.63;10457801;28;20494;-72
2022/08/09 02:07:07;;;;;;;0.00;0.00;;;;;;;10.77;100.00;102795.88;10456311;28;20206;-72
2022/08/09 02:11:40;;;;;;;0.10;0.10;;;;;;;10.61;100.00;102795.28;10454201;28;20029;-72
2022/08/09 02:16:42;;;;;;;0.10;0.10;;;;;;;10.48;100.00;102813.13;10455913;28;20464;-72
2022/08/09 02:21:48;;;;;;;0.10;0.10;;;;;;;10.48;100.00;102815.78;10455788;28;20023;-72
2022/08/09 02:26:50;;;;;;;0.10;0.10;;;;;;;10.51;100.00;102811.09;10455385;28;20090;-72
2022/08/09 02:31:54;;;;;;;0.03;0.03;;;;;;;10.65;100.00;102820.75;10457534;28;20033;-72
2022/08/09 02:36:57;;;;;;;0.00;0.00;;;;;;;10.70;100.00;102815.06;10454916;28;20024;-72
2022/08/09 02:42:07;;;;;;;0.10;0.10;;;;;;;10.64;100.00;102813.69;10455461;28;20025;-72
2022/08/09 02:47:12;;;;;;;0.00;0.00;;;;;;;10.63;100.00;102814.69;10454081;28;20096;-72
2022/08/09 02:52:15;;;;;;;0.00;0.00;;;;;;;10.64;100.00;102811.03;10454226;28;20024;-73
2022/08/09 02:57:18;;;;;;;0.00;0.00;;;;;;;10.64;100.00;102806.56;10454093;28;20013;-73
2022/08/09 03:02:19;;;;;;;0.10;0.10;;;;;;;10.68;100.00;102811.69;10452858;28;20127;-73
2022/08/09 03:07:21;;;;;;;0.00;0.00;;;;;;;10.70;100.00;102805.25;10453962;28;20028;-73
2022/08/09 03:12:23;;;;;;;0.00;0.00;;;;;;;10.60;100.00;102798.91;10453961;28;20025;-73
2022/08/09 03:17:23;;;;;;;0.00;0.00;;;;;;;10.59;100.00;102799.88;10454232;28;20020;-73
2022/08/09 03:22:25;;;;;;;0.10;0.10;;;;;;;10.52;100.00;102796.78;10453443;28;20021;-73
2022/08/09 03:27:27;;;;;;;0.10;0.10;;;;;;;10.54;100.00;102813.53;10453297;28;20021;-73
2022/08/09 03:32:29;;;;;;;0.10;0.10;;;;;;;10.61;100.00;102811.25;10453201;28;20400;-72
2022/08/09 03:37:30;;;;;;;0.10;0.10;;;;;;;10.57;100.00;102807.97;10452515;28;20384;-72
2022/08/09 03:42:31;;;;;;;0.00;0.00;;;;;;;10.65;100.00;102813.59;10451798;28;20020;-72
2022/08/09 03:47:31;;;;;;;0.00;0.00;;;;;;;10.70;100.00;102815.06;10450552;28;20108;-72
2022/08/09 03:52:32;;;;;;;0.10;0.10;;;;;;;10.71;100.00;102817.63;10452643;28;20021;-72
2022/08/09 03:57:33;;;;;;;0.00;0.00;;;;;;;10.72;100.00;102814.00;10452334;28;20017;-72
2022/08/09 04:02:34;;;;;;;0.10;0.10;;;;;;;11.03;100.00;102811.75;10434651;28;20047;-72
2022/08/09 04:07:35;;;;;;;0.00;0.00;;;;;;;11.70;100.00;102814.66;10451626;28;20032;-72
2022/08/09 04:12:43;;;;;;;0.10;0.10;;;;;;;12.51;100.00;102823.50;10454629;28;20032;-72
2022/08/09 04:17:44;;;;;;;0.10;0.10;;;;;;;13.34;100.00;102819.41;10453148;28;20111;-72
2022/08/09 04:22:45;;;;;;;0.10;0.10;;;;;;;14.22;100.00;102821.66;10454065;28;20021;-72
2022/08/09 04:27:45;;;;;;;0.10;0.10;;;;;;;15.02;100.00;102827.94;10460152;28;20035;-73
2022/08/09 04:32:46;;;;;;;0.10;0.10;;;;;;;15.68;100.00;102832.63;10454771;28;20515;-73
2022/08/09 04:37:46;;;;;;;0.10;0.10;;;;;;;16.51;100.00;102832.78;10459785;28;20469;-73
2022/08/09 04:42:47;;;;;;;0.00;0.00;;;;;;;17.27;100.00;102842.34;10453670;28;20021;-73
2022/08/09 04:47:47;;;;;;;0.10;0.10;;;;;;;18.01;100.00;102839.25;10450947;28;20040;-73
2022/08/09 04:52:48;;;;;;;0.10;0.10;;;;;;;19.13;100.00;102842.72;10451100;28;20045;-73
2022/08/09 04:57:48;;;;;;;0.05;0.05;;;;;;;20.08;99.82;102843.03;10447539;28;20256;-73
2022/08/09 05:02:48;;;;;;;0.10;0.10;;;;;;;21.01;92.68;102845.00;10449019;28;20074;-73
2022/08/09 05:07:49;;;;;;;0.10;0.10;;;;;;;21.55;88.65;102844.94;10453076;28;20028;-73
2022/08/09 05:12:49;;;;;;;0.00;0.00;;;;;;;21.73;87.82;102852.75;10450055;28;20025;-73
2022/08/09 05:17:50;;;;;;;0.00;0.00;;;;;;;22.15;84.28;102863.00;10453067;28;20036;-73
2022/08/09 05:22:52;;;;;;;0.10;0.10;;;;;;;22.41;82.81;102853.56;10450745;28;20044;-73
2022/08/09 05:27:52;;;;;;;0.00;0.00;;;;;;;22.91;82.09;102860.00;10450612;28;20055;-73
2022/08/09 05:32:53;;;;;;;0.10;0.10;;;;;;;23.62;77.08;102868.28;10465298;28;20092;-73
2022/08/09 05:37:54;;;;;;;0.00;0.00;;;;;;;23.78;74.99;102871.78;10450843;28;20298;-73
2022/08/09 05:42:55;;;;;;;0.00;0.00;;;;;;;24.03;73.59;102885.75;10457014;28;20490;-73
2022/08/09 05:47:56;;;;;;;0.10;0.10;;;;;;;24.15;71.68;102889.63;10453912;28;20111;-73
2022/08/09 05:52:56;;;;;;;0.10;0.10;;;;;;;24.36;71.74;102884.06;10450268;28;20035;-74
2022/08/09 05:57:56;;;;;;;0.00;0.00;;;;;;;24.36;72.11;102883.25;10449851;28;20021;-73
2022/08/09 06:02:58;;;;;;;0.10;0.10;;;;;;;24.67;72.00;102899.16;10452903;28;20033;-74
2022/08/09 06:07:59;;;;;;;0.10;0.10;;;;;;;25.01;70.38;102908.28;10447010;28;20028;-73
2022/08/09 06:12:59;;;;;;;0.08;0.08;;;;;;;25.32;69.50;102899.56;10453958;28;20294;-72
2022/08/09 06:18:00;;;;;;;0.10;0.10;;;;;;;25.83;68.30;102906.31;10449918;28;20361;-72
2022/08/09 06:23:00;;;;;;;0.00;0.00;;;;;;;26.17;65.25;102900.59;10448505;28;20032;-72
2022/08/09 06:28:01;;;;;;;0.10;0.10;;;;;;;26.60;65.97;102902.81;10457509;28;20056;-72
2022/08/09 06:33:01;;;;;;;0.10;0.10;;;;;;;26.68;65.03;102907.22;10459589;28;20037;-73
2022/08/09 06:38:02;;;;;;;0.10;0.10;;;;;;;27.09;65.64;102905.97;10455534;28;20063;-73
2022/08/09 06:43:03;;;;;;;0.10;0.10;;;;;;;27.78;63.12;102912.44;10458239;28;20029;-73
2022/08/09 06:48:03;;;;;;;0.10;0.10;;;;;;;28.08;60.79;102914.50;10454702;28;20643;-72
2022/08/09 06:53:04;;;;;;;0.10;0.10;;;;;;;28.48;58.44;102916.81;10461946;28;20396;-73
2022/08/09 06:58:04;;;;;;;0.10;0.10;;;;;;;28.25;59.24;102915.56;10457806;28;20025;-73
2022/08/09 07:03:04;;;;;;;0.10;0.10;;;;;;;28.20;59.76;102912.66;10460101;28;20025;-74
2022/08/09 07:08:05;;;;;;;0.10;0.10;;;;;;;28.20;58.17;102923.63;10460338;28;20029;-73
2022/08/09 07:13:05;;;;;;;0.10;0.10;;;;;;;28.28;58.45;102922.50;10453685;28;20059;-73
2022/08/09 07:18:06;;;;;;;0.10;0.10;;;;;;;28.49;58.74;102921.25;10454444;28;20029;-74
2022/08/09 07:23:06;;;;;;;0.10;0.10;;;;;;;28.61;56.20;102922.97;10454312;28;20040;-74
2022/08/09 07:28:07;;;;;;;0.10;0.10;;;;;;;28.54;58.43;102918.66;10454468;28;20021;-73
2022/08/09 07:33:07;;;;;;;0.10;0.10;;;;;;;28.67;57.41;102921.22;10456745;28;20024;-74
2022/08/09 07:38:07;;;;;;;0.10;0.10;;;;;;;28.14;59.61;102922.63;10454779;28;20090;-73
2022/08/09 07:43:08;;;;;;;0.10;0.10;;;;;;;28.24;59.38;102932.22;10454119;28;20052;-73
2022/08/09 07:48:10;;;;;;;0.10;0.10;;;;;;;28.68;59.48;102928.38;10458639;28;20029;-74
2022/08/09 07:53:10;;;;;;;0.10;0.10;;;;;;;28.36;56.62;102922.19;10454020;28;20033;-73
2022/08/09 07:58:10;;;;;;;0.10;0.10;;;;;;;28.19;57.90;102932.94;10453967;28;20484;-74
2022/08/09 08:03:11;;;;;;;0.10;0.10;;;;;;;28.38;57.71;102931.84;10450415;28;20032;-72
2022/08/09 08:08:11;;;;;;;0.10;0.10;;;;;;;28.11;59.25;102934.03;10452878;28;20028;-73
2022/08/09 08:13:11;;;;;;;0.10;0.10;;;;;;;28.15;58.67;102934.44;10452419;28;20117;-73
2022/08/09 08:18:12;;;;;;;0.10;0.10;;;;;;;28.10;57.81;102934.25;10456169;28;20025;-73
2022/08/09 08:23:12;;;;;;;0.10;0.10;;;;;;;27.77;57.27;102941.69;10451947;28;20055;-73
2022/08/09 08:28:14;;;;;;;0.00;0.00;;;;;;;27.73;57.63;102937.72;10450212;28;20025;-73
2022/08/09 08:33:15;;;;;;;0.08;0.08;;;;;;;27.72;59.72;102933.31;10449821;28;20045;-73
2022/08/09 08:38:15;;;;;;;0.10;0.10;;;;;;;28.17;58.02;102929.56;10452577;28;20037;-72
2022/08/09 08:43:16;;;;;;;0.03;0.03;;;;;;;27.95;57.18;102927.22;10451926;28;20071;-73
2022/08/09 08:48:17;;;;;;;0.00;0.00;;;;;;;27.16;58.78;102928.66;10450677;28;20025;-73
2022/08/09 08:53:18;;;;;;;0.10;0.10;;;;;;;27.30;59.77;102919.31;10450814;28;20024;-72
2022/08/09 08:58:19;;;;;;;0.10;0.10;;;;;;;27.86;55.79;102922.28;10450971;28;20028;-72
2022/08/09 09:03:20;;;;;;;0.10;0.10;;;;;;;27.45;58.67;102921.72;10446389;28;20499;-72
2022/08/09 09:08:22;;;;;;;0.10;0.10;;;;;;;26.86;59.19;102928.38;10451131;28;20456;-72
2022/08/09 09:13:23;;;;;;;;;;;;;;;26.62;61.35;102932.69;10448725;28;20024;-74
2022/08/09 09:18:23;;;;;;;0.10;0.10;;;;;;;26.40;55.57;102945.75;10451232;28;20368;-73
2022/08/09 09:23:50;;;;;;;0.10;0.10;;;;;;;26.47;56.12;102945.72;10451102;28;20030;-73
2022/08/09 09:28:50;;;;;;;0.10;0.10;;;;;;;26.46;60.13;102949.50;10447049;28;20373;-73
2022/08/09 09:33:51;;;;;;;0.10;0.10;;;;;;;26.20;59.19;102948.50;10459156;28;20033;-72
2022/08/09 09:38:56;;;;;;;0.10;0.10;;;;;;;25.92;62.09;102937.84;10450720;28;20025;-72
2022/08/09 09:43:59;;;;;;;0.00;0.00;;;;;;;26.47;61.19;102942.97;10450793;28;20068;-72
2022/08/09 09:49:03;;;;;;;0.00;0.00;;;;;;;27.16;57.97;102941.50;10450264;28;20020;-72
2022/08/09 09:54:06;;;;;;;0.10;0.10;;;;;;;27.18;58.92;102947.59;10449766;28;20024;-72
2022/08/09 09:59:11;;;;;;;0.03;0.03;;;;;;;26.86;57.18;102951.09;10452752;28;20060;-72
2022/08/09 10:04:14;;;;;;;0.00;0.00;;;;;;;26.01;59.76;102942.03;10466903;28;20032;-72
2022/08/09 10:09:15;;;;;;;0.10;0.10;;;;;;;25.72;63.47;102943.28;10485653;28;20016;-71
2022/08/09 10:14:29;;;;;;;0.10;0.10;;;;;;;26.00;60.90;102942.22;10491709;28;20031;-72
2022/08/09 10:19:35;;;;;;;0.00;0.00;;;;;;;26.13;66.21;102940.34;10458037;28;20035;-72
2022/08/09 10:24:35;;;;;;;0.10;0.10;;;;;;;26.22;64.68;102946.41;10457587;28;20106;-73
2022/08/09 10:29:36;;;;;;;0.00;0.00;;;;;;;26.01;64.47;102939.31;10469508;28;20111;-72
2022/08/09 10:34:36;;;;;;;0.10;0.10;;;;;;;25.89;65.63;102944.56;10466500;28;20032;-73
2022/08/09 10:39:39;;;;;;;0.00;0.00;;;;;;;25.86;65.58;102928.59;10488822;28;20505;-73
2022/08/09 10:44:42;;;;;;;0.00;0.00;;;;;;;25.50;64.70;102927.06;10496898;28;20481;-73
2022/08/09 10:49:51;;;;;;;0.00;0.00;;;;;;;25.44;65.18;102919.72;10497965;28;20020;-73
2022/08/09 10:54:52;;;;;;;0.10;0.10;;;;;;;25.19;67.66;102922.22;10486859;28;20060;-73
2022/08/09 10:59:52;;;;;;;0.00;0.00;;;;;;;25.36;69.03;102919.91;10459604;28;20445;-73
2022/08/09 11:05:13;;;;;;;0.00;0.00;;;;;;;26.01;66.47;102920.19;10456300;28;20104;-74
2022/08/09 11:10:16;;;;;;;0.10;0.10;;;;;;;26.61;65.30;102917.31;10455639;28;20299;-73
2022/08/09 11:15:16;;;;;;;0.00;0.00;;;;;;;26.89;58.49;102906.06;10455823;28;20094;-73
2022/08/09 11:20:19;;;;;;;0.00;0.00;;;;;;;26.82;61.88;102899.78;10490029;28;20033;-74
2022/08/09 11:25:26;;;;;;;0.00;0.00;;;;;;;26.99;59.59;102900.94;10496972;28;20169;-73
2022/08/09 11:30:26;;;;;;;0.00;0.00;;;;;;;26.83;59.91;102890.53;10477353;28;20033;-73
2022/08/09 11:35:39;;;;;;;0.00;0.00;;;;;;;26.81;60.57;102893.47;10462845;28;20033;-73
2022/08/09 11:40:40;;;;;;;0.00;0.00;;;;;;;26.96;60.24;102892.34;10453339;28;20024;-73
2022/08/09 11:45:56;;;;;;;0.00;0.00;;;;;;;26.95;59.12;102883.31;10452910;28;20071;-73
2022/08/09 11:50:56;;;;;;;0.00;0.00;;;;;;;26.88;57.37;102877.06;10453281;28;20028;-73
2022/08/09 11:55:59;;;;;;;0.10;0.10;;;;;;;27.04;60.11;102870.22;10452330;28;20491;-73
2022/08/09 12:01:05;;;;;;;0.10;0.10;;;;;;;27.24;58.73;102864.66;10450064;28;20021;-73
2022/08/09 12:06:16;;;;;;;0.10;0.10;;;;;;;27.33;57.75;102868.78;10456666;28;20079;-73
2022/08/09 12:11:19;;;;;;;0.00;0.00;;;;;;;27.33;57.93;102870.69;10451504;28;20112;-73
2022/08/09 12:16:34;;;;;;;0.00;0.00;;;;;;;27.12;57.50;102871.84;10452570;28;20437;-73
2022/08/09 12:21:36;;;;;;;0.10;0.10;;;;;;;27.26;59.31;102866.09;10467666;28;20020;-72
2022/08/09 12:26:41;;;;;;;0.00;0.00;;;;;;;27.45;60.08;102858.78;10452618;28;20423;-72
2022/08/09 12:31:41;;;;;;;0.00;0.00;;;;;;;27.29;57.29;102856.63;10456988;28;20067;-73
2022/08/09 12:36:55;;;;;;;0.00;0.00;;;;;;;27.05;55.61;102850.88;10465270;28;20051;-73
2022/08/09 12:42:10;;;;;;;0.00;0.00;;;;;;;26.96;57.17;102851.31;10455984;28;20430;-73
2022/08/09 12:47:11;;;;;;;0.00;0.00;;;;;;;27.06;59.53;102858.00;10448853;28;20025;-72
2022/08/09 12:52:11;;;;;;;0.10;0.10;;;;;;;26.88;56.05;102849.72;10449865;28;20063;-72
2022/08/09 12:57:11;;;;;;;0.00;0.00;;;;;;;26.70;56.46;102841.38;10450401;28;20024;-72
2022/08/09 13:02:12;;;;;;;0.00;0.00;;;;;;;26.76;56.89;102841.38;10461790;28;20029;-72
2022/08/09 13:07:17;;;;;;;0.10;0.10;;;;;;;26.66;56.24;102835.53;10464070;28;20586;-72
2022/08/09 13:12:18;;;;;;;0.10;0.10;;;;;;;26.71;54.74;102841.19;10451811;28;20033;-72
2022/08/09 13:17:18;;;;;;;0.10;0.10;;;;;;;26.68;54.94;102827.94;10451925;28;20020;-73
2022/08/09 13:22:22;;;;;;;0.10;0.10;;;;;;;26.71;55.82;102832.97;10450380;28;20040;-73
2022/08/09 13:27:31;;;;;;;0.00;0.00;;;;;;;26.68;53.50;102836.16;10450489;28;20539;-73
2022/08/09 13:32:51;;;;;;;0.10;0.10;;;;;;;26.64;55.42;102830.25;10462877;28;20377;-74
2022/08/09 13:37:55;;;;;;;0.10;0.10;;;;;;;26.62;55.31;102828.84;10471322;28;20066;-72
2022/08/09 13:42:56;;;;;;;0.00;0.00;;;;;;;26.47;54.24;102830.94;10458684;28;20476;-72
2022/08/09 13:47:56;;;;;;;0.00;0.00;;;;;;;26.57;55.14;102820.44;10458859;28;20024;-72
2022/08/09 13:52:57;;;;;;;0.10;0.10;;;;;;;26.59;54.98;102815.59;10458350;28;20025;-72
2022/08/09 13:57:57;;;;;;;0.10;0.10;;;;;;;26.48;55.45;102821.72;10458201;28;20456;-73
2022/08/09 14:02:58;;;;;;;0.10;0.10;;;;;;;26.42;56.21;102820.69;10466349;28;20570;-73
2022/08/09 14:08:01;;;;;;;0.10;0.10;;;;;;;26.42;58.04;102827.00;10460330;28;20025;-72
2022/08/09 14:13:02;;;;;;;0.00;0.00;;;;;;;26.49;56.82;102820.66;10457664;28;20086;-72
2022/08/09 14:18:02;;;;;;;0.00;0.00;;;;;;;26.48;56.14;102819.81;10457245;28;20460;-72
2022/08/09 14:23:03;;;;;;;0.00;0.00;;;;;;;26.46;56.75;102821.09;10456009;28;20032;-72
2022/08/09 14:28:03;;;;;;;0.00;0.00;;;;;;;26.36;57.45;102835.22;10454503;28;20048;-72
2022/08/09 14:33:04;;;;;;;0.10;0.10;;;;;;;26.30;58.50;102830.63;10454410;28;20024;-72
2022/08/09 14:38:04;;;;;;;0.10;0.10;;;;;;;26.27;58.46;102839.22;10454429;28;20013;-72
2022/08/09 14:43:04;;;;;;;0.10;0.10;;;;;;;26.13;58.40;102836.56;10455204;28;20017;-73
2022/08/09 14:48:05;;;;;;;0.00;0.00;;;;;;;25.80;56.59;102835.75;10454475;28;20020;-73
2022/08/09 14:53:08;;;;;;;0.10;0.10;;;;;;;25.58;56.05;102833.25;10454351;28;20469;-73
2022/08/09 14:58:09;;;;;;;0.00;0.00;;;;;;;25.59;59.21;102829.47;10453996;28;20503;-73
2022/08/09 15:03:10;;;;;;;0.10;0.10;;;;;;;25.58;60.00;102837.88;10452499;28;20616;-73
2022/08/09 15:08:10;;;;;;;0.10;0.10;;;;;;;25.46;58.39;102835.78;10451909;28;20376;-73
2022/08/09 15:13:14;;;;;;;0.00;0.00;;;;;;;25.42;58.43;102830.94;10454372;28;20037;-73
2022/08/09 15:18:15;;;;;;;0.00;0.00;;;;;;;25.46;59.24;102832.22;10450251;28;20072;-73
2022/08/09 15:23:16;;;;;;;0.00;0.00;;;;;;;25.31;58.18;102835.16;10452847;28;20052;-73
2022/08/09 15:28:16;;;;;;;0.00;0.00;;;;;;;25.19;58.01;102829.50;10451882;28;20336;-73
2022/08/09 15:33:16;;;;;;;0.00;0.00;;;;;;;25.10;59.85;102817.06;10453654;28;20021;-73
2022/08/09 15:38:17;;;;;;;0.00;0.00;;;;;;;25.11;60.99;102810.56;10453170;28;20309;-73
2022/08/09 15:43:18;;;;;;;0.00;0.00;;;;;;;25.00;60.77;102811.19;10453009;28;20116;-73
2022/08/09 15:48:18;;;;;;;0.10;0.10;;;;;;;24.92;61.11;102805.91;10452491;28;20017;-73
2022/08/09 15:53:19;;;;;;;0.00;0.00;;;;;;;24.73;61.55;102797.50;10452691;28;20385;-73
2022/08/09 15:58:19;;;;;;;0.00;0.00;;;;;;;24.66;60.56;102796.63;10452056;28;20078;-73
2022/08/09 16:03:19;;;;;;;0.00;0.00;;;;;;;24.56;60.63;102797.03;10452231;28;20123;-73
2022/08/09 16:08:20;;;;;;;0.00;0.00;;;;;;;24.43;62.19;102788.81;10451955;28;20417;-73
2022/08/09 16:13:20;;;;;;;0.00;0.00;;;;;;;24.36;63.06;102783.31;10451805;28;20021;-73
2022/08/09 16:18:21;;;;;;;0.10;0.10;;;;;;;24.33;64.48;102777.44;10451390;28;20023;-73
2022/08/09 16:23:21;;;;;;;0.00;0.00;;;;;;;24.28;65.17;102778.03;10451141;28;20036;-73
2022/08/09 16:28:21;;;;;;;0.00;0.00;;;;;;;24.21;65.00;102771.75;10450744;28;20318;-73
2022/08/09 16:33:22;;;;;;;0.10;0.10;;;;;;;24.15;67.32;102773.38;10449358;28;20025;-73
2022/08/09 16:38:22;;;;;;;0.07;0.07;;;;;;;24.09;68.28;102776.91;10450790;28;20254;-73
2022/08/09 16:43:22;;;;;;;0.00;0.00;;;;;;;24.01;65.76;102777.09;10451057;28;20021;-73
2022/08/09 16:48:23;;;;;;;0.00;0.00;;;;;;;23.87;64.40;102778.88;10450889;28;20021;-73
2022/08/09 16:53:24;;;;;;;0.00;0.00;;;;;;;23.75;65.85;102776.94;10451435;28;20024;-73
2022/08/09 16:58:24;;;;;;;0.10;0.10;;;;;;;23.63;68.76;102774.75;10450258;28;20025;-73
2022/08/09 17:03:24;;;;;;;0.00;0.00;;;;;;;23.54;66.67;102772.38;10450017;28;20465;-72
2022/08/09 17:08:26;;;;;;;0.00;0.00;;;;;;;23.43;66.73;102777.31;10447749;28;20035;-73
2022/08/09 17:13:26;;;;;;;0.00;0.00;;;;;;;23.33;67.49;102774.13;10447673;28;20089;-73
2022/08/09 17:18:27;;;;;;;0.10;0.10;;;;;;;23.23;68.12;102781.75;10449387;28;20028;-73
2022/08/09 17:23:28;;;;;;;0.00;0.00;;;;;;;23.17;68.71;102782.53;10449353;28;20105;-73
2022/08/09 17:28:28;;;;;;;0.00;0.00;;;;;;;23.10;69.81;102785.19;10446527;28;20060;-72
2022/08/09 17:33:29;;;;;;;0.00;0.00;;;;;;;23.02;71.55;102783.44;10446905;28;20028;-72
2022/08/09 17:38:29;;;;;;;0.00;0.00;;;;;;;22.93;73.34;102798.19;10446219;28;20021;-72
2022/08/09 17:43:30;;;;;;;0.00;0.00;;;;;;;22.84;74.25;102796.63;10445917;28;20376;-72
2022/08/09 17:48:32;;;;;;;0.08;0.08;;;;;;;22.79;72.13;102793.63;10445674;28;20102;-73
2022/08/09 17:53:32;;;;;;;0.00;0.00;;;;;;;22.69;70.98;102801.25;10447241;28;20021;-73
2022/08/09 17:58:32;;;;;;;0.00;0.00;;;;;;;22.53;68.87;102796.91;10443404;28;20021;-73
2022/08/09 18:03:33;;;;;;;0.00;0.00;;;;;;;22.42;69.47;102797.38;10443536;28;20024;-71
2022/08/09 18:08:34;;;;;;;0.00;0.00;;;;;;;22.27;71.28;102798.25;10445269;28;20279;-72
2022/08/09 18:13:35;;;;;;;0.00;0.00;;;;;;;22.11;71.06;102804.69;10447282;28;20021;-73
2022/08/09 18:18:35;;;;;;;0.10;0.10;;;;;;;21.92;72.35;102802.53;10448115;28;20465;-72
2022/08/09 18:23:36;;;;;;;0.10;0.10;;;;;;;21.72;73.42;102801.41;10456039;28;20052;-73
2022/08/09 18:28:36;;;;;;;0.00;0.00;;;;;;;21.52;75.49;102801.94;10451694;28;20024;-72
2022/08/09 18:33:37;;;;;;;0.10;0.10;;;;;;;21.04;78.88;102809.44;10457719;28;20041;-72
2022/08/09 18:38:38;;;;;;;0.00;0.00;;;;;;;20.56;82.21;102811.41;10454940;28;20058;-72
2022/08/09 18:43:38;;;;;;;0.10;0.10;;;;;;;20.12;85.19;102814.59;10455689;28;20045;-73
2022/08/09 18:48:38;;;;;;;0.00;0.00;;;;;;;19.73;87.42;102801.88;10454981;28;20064;-72
2022/08/09 18:53:39;;;;;;;0.10;0.10;;;;;;;19.40;88.67;102799.19;10453366;28;20021;-73
2022/08/09 18:58:39;;;;;;;0.00;0.00;;;;;;;19.08;91.19;102802.72;10454218;28;20384;-73
2022/08/09 19:03:40;;;;;;;0.10;0.10;;;;;;;18.82;92.78;102802.84;10445564;28;20268;-72
2022/08/09 19:08:40;;;;;;;0.10;0.10;;;;;;;18.57;93.79;102806.47;10453509;28;20378;-72
2022/08/09 19:13:41;;;;;;;0.10;0.10;;;;;;;18.30;95.41;102803.00;10453624;28;20035;-72
2022/08/09 19:18:41;;;;;;;0.10;0.10;;;;;;;17.99;98.69;102806.22;10455416;28;20031;-72
2022/08/09 19:23:42;;;;;;;0.03;0.03;;;;;;;17.69;100.00;102821.00;10451584;28;20025;-73
2022/08/09 19:28:43;;;;;;;0.10;0.10;;;;;;;17.50;100.00;102827.41;10437615;28;20754;-72
2022/08/09 19:33:43;;;;;;;0.00;0.00;;;;;;;17.42;100.00;102828.19;10453360;28;20431;-72
2022/08/09 19:38:43;;;;;;;0.10;0.10;;;;;;;17.49;100.00;102839.19;10453794;28;20078;-72
2022/08/09 19:43:44;;;;;;;0.10;0.10;;;;;;;17.41;100.00;102842.66;10453037;28;20052;-72
2022/08/09 19:48:44;;;;;;;0.00;0.00;;;;;;;17.22;100.00;102850.03;10452742;28;20017;-72
2022/08/09 19:53:45;;;;;;;0.10;0.10;;;;;;;16.98;100.00;102856.88;10451869;28;20472;-72
2022/08/09 19:58:45;;;;;;;0.10;0.10;;;;;;;16.92;100.00;102874.47;10448272;28;20325;-71
2022/08/09 20:03:48;;;;;;;0.10;0.10;;;;;;;16.83;100.00;102874.53;10451313;28;20267;-72
2022/08/09 20:08:51;;;;;;;0.00;0.00;;;;;;;16.64;100.00;102876.31;10451942;28;20035;-71
2022/08/09 20:13:52;;;;;;;0.10;0.10;;;;;;;16.42;100.00;102882.94;10450095;28;20590;-72
2022/08/09 20:18:52;;;;;;;0.00;0.00;;;;;;;16.18;100.00;102886.13;10450161;28;20151;-72
2022/08/09 20:23:52;;;;;;;0.08;0.08;;;;;;;16.03;100.00;102879.53;10448674;28;20385;-72
2022/08/09 20:28:53;;;;;;;0.10;0.10;;;;;;;15.99;100.00;102876.25;10449431;28;20032;-72
2022/08/09 20:33:53;;;;;;;0.10;0.10;;;;;;;16.04;100.00;102879.38;10451203;28;20271;-71
2022/08/09 20:38:54;;;;;;;0.10;0.10;;;;;;;15.92;100.00;102877.00;10450368;28;20267;-71
2022/08/09 20:43:54;;;;;;;0.10;0.10;;;;;;;15.76;100.00;102870.34;10449575;28;20642;-71
2022/08/09 20:48:54;;;;;;;0.10;0.10;;;;;;;15.65;100.00;102866.94;10450515;28;20254;-71
2022/08/09 20:53:55;;;;;;;0.10;0.10;;;;;;;15.55;100.00;102862.44;10449112;28;20342;-72
2022/08/09 20:58:55;;;;;;;0.10;0.10;;;;;;;15.51;100.00;102865.56;10449865;28;20013;-71
2022/08/09 21:03:56;;;;;;;0.10;0.10;;;;;;;15.57;100.00;102881.94;10449205;28;20259;-72
2022/08/09 21:08:56;;;;;;;0.10;0.10;;;;;;;15.55;100.00;102891.13;10448960;28;20039;-71
2022/08/09 21:13:57;;;;;;;0.10;0.10;;;;;;;15.38;100.00;102896.22;10446663;28;20043;-71
2022/08/09 21:18:57;;;;;;;0.10;0.10;;;;;;;15.31;100.00;102892.41;10449270;28;20312;-71
2022/08/09 21:23:58;;;;;;;0.10;0.10;;;;;;;15.43;100.00;102903.84;10449204;28;21716;-71
2022/08/09 21:28:58;;;;;;;0.00;0.00;;;;;;;15.45;100.00;102895.69;10449163;28;20645;-71
2022/08/09 21:33:59;;;;;;;0.10;0.10;;;;;;;15.26;100.00;102900.03;10448915;28;20036;-72
2022/08/09 21:38:59;;;;;;;0.10;0.10;;;;;;;15.11;100.00;102902.25;10446998;28;20100;-71
2022/08/09 21:44:00;;;;;;;0.10;0.10;;;;;;;15.01;100.00;102900.53;10449661;28;20033;-71
2022/08/09 21:49:00;;;;;;;0.10;0.10;;;;;;;14.96;100.00;102895.59;10448992;28;20031;-71
2022/08/09 21:54:00;;;;;;;0.10;0.10;;;;;;;14.92;100.00;102889.66;10450505;28;20755;-72
2022/08/09 21:59:01;;;;;;;0.10;0.10;;;;;;;14.85;100.00;102901.06;10457199;28;20040;-71
2022/08/09 22:04:01;;;;;;;0.00;0.00;;;;;;;14.68;100.00;102889.16;10456281;28;20679;-71
2022/08/09 22:09:03;;;;;;;0.10;0.10;;;;;;;14.65;100.00;102892.94;10457187;28;20400;-71
2022/08/09 22:14:04;;;;;;;0.10;0.10;;;;;;;14.59;100.00;102881.94;10457950;28;20024;-71
2022/08/09 22:19:04;;;;;;;0.10;0.10;;;;;;;14.41;100.00;102887.88;10457193;28;20025;-72
2022/08/09 22:24:05;;;;;;;0.10;0.10;;;;;;;14.30;100.00;102885.28;10457021;28;20024;-71
2022/08/09 22:29:06;;;;;;;0.10;0.10;;;;;;;14.24;100.00;102883.16;10456315;28;20027;-72
2022/08/09 22:34:07;;;;;;;0.10;0.10;;;;;;;14.21;100.00;102876.22;10458404;28;20020;-72
2022/08/09 22:39:07;;;;;;;0.10;0.10;;;;;;;14.22;100.00;102885.09;10456077;28;20017;-72
2022/08/09 22:44:08;;;;;;;0.10;0.10;;;;;;;14.03;100.00;102875.97;10455185;28;20563;-72
2022/08/09 22:49:08;;;;;;;0.10;0.10;;;;;;;13.88;100.00;102879.97;10455397;28;20283;-72
2022/08/09 22:54:09;;;;;;;0.10;0.10;;;;;;;13.71;100.00;102875.22;10455081;28;20033;-71
2022/08/09 22:59:09;;;;;;;0.10;0.10;;;;;;;13.64;100.00;102877.53;10454950;28;20021;-71
2022/08/09 23:04:10;;;;;;;0.10;0.10;;;;;;;13.66;100.00;102880.94;10455693;28;20463;-71